Дата Пункты Температура Давл., мм. Влажн., % Ветер Погодные явления
Воздуха Воды Направл. Скорость
29.04.16 12:00 Одесса 10.0 10.0 762 100 Пд 3 12 часов
29.04.16 09:00 Одесса 10.0 10.0 762 97 Пд-С 2 09 часов
29.04.16 06:00 Одесса 8.0 10.0 761 100 Пд 1 06 часов
29.04.16 03:00 Одесса 10.0 10.0 761 97 Пд-З 1 03 часа
28.04.16 09:00 Одесса 11.0 10.0 760 98 Пд 2 21 час
28.04.16 06:00 Одесса 12.0 10.0 759 94 Пд 5 18 часов
28.04.16 03:00 Одесса 13.0 10.0 759 86 Пд 6 15 часов
28.04.16 12:00 Одесса 13.0 11.0 759 93 Пд 6 12 часов
28.04.16 09:00 Одесса 14.0 11.0 758 77 З 1 09 часов
28.04.16 06:00 Одесса 7.0 12.0 758 98 Пд-З 1 06 часов
28.04.16 03:00 Одесса 8.0 12.0 757 92 З 2 03 часа
27.04.16 09:00 Одесса 11.0 12.0 757 68 Пд-З 2 21 час
27.04.16 06:00 Одесса 17.0 12.0 755 51 З 2 18 часов
27.04.16 03:00 Одесса 16.0 12.0 755 60 Пн 3 15 часов
27.04.16 12:00 Одесса 13.0 11.0 755 69 Пн-З 3 12 часов
27.04.16 09:00 Одесса 9.0 11.0 754 84 Пн-З 4 09 часов
27.04.16 03:00 Одесса 7.0 12.0 752 97 Пн-З 3 03 часа
26.04.16 09:00 Одесса 9.0 12.0 751 90 Пн-З 2 21 час
26.04.16 06:00 Одесса 12.0 13.0 750 83 Пн-З 1 18 часов
26.04.16 03:00 Одесса 13.0 13.0 749 89 Пн 2 15 часов
Количество строк
351 352 353 354 355 356 357 358 359 360
Page 353 of 511